Time;durP1;ratioP1;P1;durP2;ratioP2;P2;SDS_P1;SDS_P2;PMS_P1;PMS_P2;Temp;Humidity;BMP_temperature;BMP_pressure;BME280_temperature;BME280_humidity;BME280_pressure;Samples;Min_cycle;Max_cycle;Signal;HPM_P1;HPM_P2
2021/09/15 00:00:04;;;;;;;24.30;20.83;;;;;;;;;;4994534;28;20014;-61
2021/09/15 00:02:29;;;;;;;27.88;25.02;;;;;;;;;;5012508;28;20022;-62
2021/09/15 00:04:55;;;;;;;24.38;21.77;;;;;;;;;;5012395;28;20033;-62
2021/09/15 00:07:21;;;;;;;29.45;24.20;;;;;;;;;;4994807;28;20026;-63
2021/09/15 00:09:47;;;;;;;24.45;21.38;;;;;;;;;;5011947;28;20029;-62
2021/09/15 00:12:13;;;;;;;23.05;20.42;;;;;;;;;;4994970;28;20022;-62
2021/09/15 00:14:39;;;;;;;23.13;20.63;;;;;;;;;;5012564;28;20022;-63
2021/09/15 00:17:05;;;;;;;23.45;20.90;;;;;;;;;;5012458;28;20482;-61
2021/09/15 00:19:31;;;;;;;23.45;20.00;;;;;;;;;;5016798;28;20392;-62
2021/09/15 00:21:57;;;;;;;23.42;19.98;;;;;;;;;;5022076;28;20038;-62
2021/09/15 00:24:23;;;;;;;22.95;20.55;;;;;;;;;;5012167;28;20505;-62
2021/09/15 00:26:49;;;;;;;23.45;20.88;;;;;;;;;;4994725;28;20117;-62
2021/09/15 00:29:15;;;;;;;24.73;22.10;;;;;;;;;;5011971;28;20026;-62
2021/09/15 00:31:41;;;;;;;26.52;23.83;;;;;;;;;;4994615;28;20034;-62
2021/09/15 00:34:07;;;;;;;26.55;23.00;;;;;;;;;;5012228;28;20230;-61
2021/09/15 00:36:33;;;;;;;25.27;22.27;;;;;;;;;;4994595;28;20601;-62
2021/09/15 00:38:59;;;;;;;22.48;20.08;;;;;;;;;;5011809;28;20057;-62
2021/09/15 00:41:25;;;;;;;23.77;21.00;;;;;;;;;;5012045;28;20041;-62
2021/09/15 00:43:57;;;;;;;25.77;20.85;;;;;;;;;;5012031;28;20515;-62
2021/09/15 00:46:23;;;;;;;22.70;20.30;;;;;;;;;;4994518;28;20022;-62
2021/09/15 00:48:49;;;;;;;22.40;20.00;;;;;;;;;;5011483;28;20425;-62
2021/09/15 00:51:16;;;;;;;25.05;22.48;;;;;;;;;;5031820;28;20101;-62
2021/09/15 00:53:42;;;;;;;24.40;21.77;;;;;;;;;;5031713;28;20032;-62
2021/09/15 00:56:08;;;;;;;22.63;20.23;;;;;;;;;;5031738;28;20554;-62
2021/09/15 00:58:34;;;;;;;23.80;20.42;;;;;;;;;;5031336;28;20098;-62
2021/09/15 01:01:00;;;;;;;23.23;20.73;;;;;;;;;;5031545;28;20534;-63
2021/09/15 01:03:26;;;;;;;23.17;20.23;;;;;;;;;;5032143;28;20032;-62
2021/09/15 01:05:52;;;;;;;22.63;20.23;;;;;;;;;;5017665;28;20061;-62
2021/09/15 01:08:18;;;;;;;23.25;20.25;;;;;;;;;;5034779;28;20018;-63
2021/09/15 01:10:44;;;;;;;25.77;20.52;;;;;;;;;;5017625;28;20037;-62
2021/09/15 01:13:11;;;;;;;23.55;21.10;;;;;;;;;;5017510;28;20103;-59
2021/09/15 01:15:37;;;;;;;31.88;28.58;;;;;;;;;;5007679;28;20042;-62
2021/09/15 01:18:20;;;;;;;29.85;25.13;;;;;;;;;;5015115;28;20037;-59
2021/09/15 01:20:46;;;;;;;24.77;22.17;;;;;;;;;;4997446;28;20034;-62
2021/09/15 01:23:12;;;;;;;22.30;19.95;;;;;;;;;;5015059;28;20370;-61
2021/09/15 01:25:39;;;;;;;24.25;21.75;;;;;;;;;;5026793;28;20108;-59
2021/09/15 01:28:05;;;;;;;25.77;20.50;;;;;;;;;;5016948;28;20029;-63
2021/09/15 01:30:31;;;;;;;23.17;20.33;;;;;;;;;;5034482;28;20064;-61
2021/09/15 01:32:57;;;;;;;25.65;20.60;;;;;;;;;;5017301;28;20469;-59
2021/09/15 01:35:23;;;;;;;24.02;19.65;;;;;;;;;;5033002;28;20036;-61
2021/09/15 01:37:49;;;;;;;23.35;20.52;;;;;;;;;;5034729;28;20026;-61
2021/09/15 01:40:16;;;;;;;22.63;20.23;;;;;;;;;;5034349;28;20022;-61
2021/09/15 01:42:42;;;;;;;23.02;19.60;;;;;;;;;;5030328;28;20041;-61
2021/09/15 01:45:09;;;;;;;22.08;19.73;;;;;;;;;;4997021;28;20026;-61
2021/09/15 01:47:35;;;;;;;22.52;20.17;;;;;;;;;;5014560;28;20030;-60
2021/09/15 01:50:01;;;;;;;24.05;21.55;;;;;;;;;;4996608;28;20107;-62
2021/09/15 01:52:27;;;;;;;25.60;21.50;;;;;;;;;;4997188;28;20176;-61
2021/09/15 01:54:53;;;;;;;24.08;21.52;;;;;;;;;;4996944;28;20112;-61
2021/09/15 01:57:19;;;;;;;24.73;21.40;;;;;;;;;;5014343;28;20061;-61
2021/09/15 01:59:45;;;;;;;29.25;23.95;;;;;;;;;;5014152;28;20030;-61
2021/09/15 02:02:11;;;;;;;28.98;24.67;;;;;;;;;;5014377;28;20033;-62
2021/09/15 02:04:41;;;;;;;26.20;23.40;;;;;;;;;;4996692;28;20022;-61
2021/09/15 02:07:07;;;;;;;26.13;23.33;;;;;;;;;;4996899;28;20371;-61
2021/09/15 02:09:34;;;;;;;25.35;22.75;;;;;;;;;;5013812;28;20026;-61
2021/09/15 02:12:00;;;;;;;28.27;25.48;;;;;;;;;;5030285;28;20029;-61
2021/09/15 02:14:26;;;;;;;26.95;21.02;;;;;;;;;;5033539;28;20084;-61
2021/09/15 02:16:52;;;;;;;24.63;21.88;;;;;;;;;;5014863;28;20025;-59
2021/09/15 02:19:18;;;;;;;23.83;21.15;;;;;;;;;;5032815;28;20087;-63
2021/09/15 02:21:45;;;;;;;26.10;23.05;;;;;;;;;;5015911;28;20087;-61
2021/09/15 02:24:11;;;;;;;26.20;23.52;;;;;;;;;;5015619;28;20075;-61
2021/09/15 02:26:37;;;;;;;24.33;21.75;;;;;;;;;;5033656;28;20017;-61
2021/09/15 02:29:03;;;;;;;23.95;21.30;;;;;;;;;;5032617;28;20033;-60
2021/09/15 02:31:29;;;;;;;22.98;20.30;;;;;;;;;;5015366;28;20116;-61
2021/09/15 02:33:55;;;;;;;22.83;19.58;;;;;;;;;;5032809;28;20049;-62
2021/09/15 02:36:22;;;;;;;22.27;19.88;;;;;;;;;;5032943;28;20127;-61
2021/09/15 02:38:48;;;;;;;24.02;20.85;;;;;;;;;;5024471;28;20065;-61
2021/09/15 02:41:14;;;;;;;24.20;20.38;;;;;;;;;;4995900;28;20526;-61
2021/09/15 02:43:40;;;;;;;22.65;20.20;;;;;;;;;;5013582;28;20026;-61
2021/09/15 02:46:06;;;;;;;23.20;19.85;;;;;;;;;;5013758;28;20026;-61
2021/09/15 02:48:32;;;;;;;24.60;21.80;;;;;;;;;;4995742;28;20077;-60
2021/09/15 02:50:58;;;;;;;24.52;21.15;;;;;;;;;;4996023;28;20482;-61
2021/09/15 02:53:24;;;;;;;22.90;20.27;;;;;;;;;;5013349;28;20036;-59
2021/09/15 02:55:50;;;;;;;24.23;21.73;;;;;;;;;;4995897;28;20034;-61
2021/09/15 02:58:16;;;;;;;23.88;21.02;;;;;;;;;;5012484;28;20030;-61
2021/09/15 03:00:42;;;;;;;27.95;21.58;;;;;;;;;;5012678;28;20061;-61
2021/09/15 03:03:08;;;;;;;23.85;21.38;;;;;;;;;;4995342;28;20037;-61
2021/09/15 03:05:34;;;;;;;24.33;21.73;;;;;;;;;;5012995;28;20029;-61
2021/09/15 03:08:00;;;;;;;24.52;21.65;;;;;;;;;;5032911;28;20025;-61
2021/09/15 03:10:26;;;;;;;24.55;21.17;;;;;;;;;;5032502;28;20152;-62
2021/09/15 03:12:53;;;;;;;23.30;20.75;;;;;;;;;;5014997;28;20550;-61
2021/09/15 03:15:19;;;;;;;23.38;20.83;;;;;;;;;;5032761;28;20107;-61
2021/09/15 03:17:45;;;;;;;23.67;20.40;;;;;;;;;;5015275;28;20025;-61
2021/09/15 03:20:11;;;;;;;23.55;20.98;;;;;;;;;;5032342;28;20523;-61
2021/09/15 03:22:37;;;;;;;23.42;20.98;;;;;;;;;;5032598;28;20036;-61
2021/09/15 03:25:03;;;;;;;23.45;20.65;;;;;;;;;;5014765;28;20053;-61
2021/09/15 03:27:29;;;;;;;24.70;21.92;;;;;;;;;;5014133;28;20022;-61
2021/09/15 03:29:55;;;;;;;24.83;21.52;;;;;;;;;;5032126;28;20026;-61
2021/09/15 03:32:21;;;;;;;23.20;20.70;;;;;;;;;;5032534;28;20477;-61
2021/09/15 03:34:47;;;;;;;24.45;21.95;;;;;;;;;;5002558;28;20025;-59
2021/09/15 03:37:13;;;;;;;24.15;20.92;;;;;;;;;;4995021;28;20493;-61
2021/09/15 03:39:39;;;;;;;23.95;21.35;;;;;;;;;;5012235;28;20030;-61
2021/09/15 03:42:05;;;;;;;22.65;20.15;;;;;;;;;;4995143;28;20084;-61
2021/09/15 03:44:32;;;;;;;23.77;21.17;;;;;;;;;;5012013;28;20041;-61
2021/09/15 03:46:58;;;;;;;23.23;20.73;;;;;;;;;;5012568;28;20048;-61
2021/09/15 03:49:24;;;;;;;24.33;21.38;;;;;;;;;;5012039;28;20096;-62
2021/09/15 03:51:50;;;;;;;23.30;20.80;;;;;;;;;;5012488;28;20022;-61
2021/09/15 03:54:16;;;;;;;23.38;20.88;;;;;;;;;;5012534;28;20087;-58
2021/09/15 03:56:42;;;;;;;25.60;21.90;;;;;;;;;;5012178;28;20037;-61
2021/09/15 03:59:09;;;;;;;24.45;21.90;;;;;;;;;;5011949;28;20022;-61
2021/09/15 04:01:35;;;;;;;24.90;22.30;;;;;;;;;;4998376;28;20087;-61
2021/09/15 04:04:01;;;;;;;23.75;21.13;;;;;;;;;;5031909;28;20500;-62
2021/09/15 04:06:27;;;;;;;24.77;22.10;;;;;;;;;;5032008;28;20049;-61
2021/09/15 04:08:53;;;;;;;24.88;22.27;;;;;;;;;;5031752;28;20025;-61
2021/09/15 04:11:19;;;;;;;25.77;23.17;;;;;;;;;;5032052;28;20033;-60
2021/09/15 04:13:45;;;;;;;25.92;22.50;;;;;;;;;;5032077;28;20025;-60
2021/09/15 04:16:11;;;;;;;24.63;21.98;;;;;;;;;;5031967;28;20033;-61
2021/09/15 04:18:37;;;;;;;27.00;24.23;;;;;;;;;;5013898;28;20029;-61
2021/09/15 04:21:04;;;;;;;25.35;22.75;;;;;;;;;;5031864;28;20029;-60
2021/09/15 04:23:59;;;;;;;27.52;24.35;;;;;;;;;;5014166;28;20075;-60
2021/09/15 04:31:45;;;;;;;29.17;26.13;;;;;;;;;;5011721;28;20126;-58
2021/09/15 04:34:11;;;;;;;30.17;27.08;;;;;;;;;;5011920;28;20067;-61
2021/09/15 04:36:37;;;;;;;31.67;27.45;;;;;;;;;;5011951;28;20026;-60
2021/09/15 04:39:03;;;;;;;32.45;27.80;;;;;;;;;;4995694;28;20501;-61
2021/09/15 04:41:29;;;;;;;32.47;27.40;;;;;;;;;;4998142;28;20022;-61
2021/09/15 04:43:55;;;;;;;29.80;26.80;;;;;;;;;;4997848;28;20025;-60
2021/09/15 04:46:21;;;;;;;33.22;29.27;;;;;;;;;;4998068;28;20126;-60
2021/09/15 04:48:47;;;;;;;34.35;28.65;;;;;;;;;;5015267;28;20395;-61
2021/09/15 04:51:13;;;;;;;32.80;29.40;;;;;;;;;;4998250;28;20415;-61
2021/09/15 04:53:40;;;;;;;30.73;27.40;;;;;;;;;;4998181;28;20176;-62
2021/09/15 04:56:06;;;;;;;32.30;28.90;;;;;;;;;;5015229;28;20036;-61
2021/09/15 04:58:32;;;;;;;30.58;27.48;;;;;;;;;;5012385;28;20030;-61
2021/09/15 05:00:58;;;;;;;33.65;30.00;;;;;;;;;;5035000;28;20480;-60
2021/09/15 05:03:24;;;;;;;33.22;29.65;;;;;;;;;;5017243;28;20026;-62
2021/09/15 05:05:50;;;;;;;31.20;27.95;;;;;;;;;;5017296;28;20030;-61
2021/09/15 05:08:16;;;;;;;32.90;29.42;;;;;;;;;;5034915;28;20025;-61
2021/09/15 05:10:42;;;;;;;32.55;28.33;;;;;;;;;;5034780;28;20192;-59
2021/09/15 05:13:08;;;;;;;31.45;28.35;;;;;;;;;;5034752;28;20489;-61
2021/09/15 05:15:34;;;;;;;31.77;28.60;;;;;;;;;;5034630;28;20053;-61
2021/09/15 05:18:00;;;;;;;31.13;28.05;;;;;;;;;;5034596;28;20093;-61
2021/09/15 05:20:26;;;;;;;32.40;29.00;;;;;;;;;;5034167;28;20615;-61
2021/09/15 05:22:54;;;;;;;31.77;28.48;;;;;;;;;;5042278;22;20046;-62
2021/09/15 05:25:20;;;;;;;32.17;28.97;;;;;;;;;;5020122;28;20478;-61
2021/09/15 05:27:47;;;;;;;33.50;29.88;;;;;;;;;;5033283;28;20485;-62
2021/09/15 05:30:13;;;;;;;34.17;29.75;;;;;;;;;;5015226;28;20045;-61
2021/09/15 05:32:40;;;;;;;32.60;29.30;;;;;;;;;;5015082;28;20094;-61
2021/09/15 05:35:07;;;;;;;34.25;30.73;;;;;;;;;;5032911;28;20025;-62
2021/09/15 05:37:33;;;;;;;33.30;29.95;;;;;;;;;;5015319;28;20047;-62
2021/09/15 05:39:59;;;;;;;34.83;31.10;;;;;;;;;;4998073;28;20026;-61
2021/09/15 05:42:26;;;;;;;34.45;30.88;;;;;;;;;;5032597;28;20017;-61
2021/09/15 05:44:52;;;;;;;35.42;31.58;;;;;;;;;;5033041;28;20040;-59
2021/09/15 05:47:17;;;;;;;35.45;31.85;;;;;;;;;;5032927;28;20030;-61
2021/09/15 05:49:43;;;;;;;34.72;31.02;;;;;;;;;;5032031;28;20017;-62
2021/09/15 05:52:09;;;;;;;33.35;29.83;;;;;;;;;;5032455;28;20621;-61
2021/09/15 05:54:35;;;;;;;35.10;30.00;;;;;;;;;;5012506;28;20069;-59
2021/09/15 05:57:01;;;;;;;34.03;30.50;;;;;;;;;;5012885;28;20068;-61
2021/09/15 05:59:27;;;;;;;31.20;27.80;;;;;;;;;;4994585;28;20022;-59
2021/09/15 06:01:53;;;;;;;32.05;28.60;;;;;;;;;;5012030;28;20072;-60
2021/09/15 06:04:19;;;;;;;31.98;28.65;;;;;;;;;;5012646;28;20091;-63
2021/09/15 06:06:45;;;;;;;31.38;27.98;;;;;;;;;;5012513;28;20105;-61
2021/09/15 06:09:11;;;;;;;32.30;28.90;;;;;;;;;;4994323;28;20045;-62
2021/09/15 06:11:37;;;;;;;33.28;28.70;;;;;;;;;;5012156;28;20497;-58
2021/09/15 06:14:03;;;;;;;33.20;29.60;;;;;;;;;;5012257;28;20030;-61
2021/09/15 06:16:29;;;;;;;32.30;28.80;;;;;;;;;;5012514;28;20026;-60
2021/09/15 06:18:55;;;;;;;32.80;29.38;;;;;;;;;;4994134;28;20095;-62
2021/09/15 06:21:21;;;;;;;34.00;29.77;;;;;;;;;;5011010;28;20022;-61
2021/09/15 06:23:48;;;;;;;33.08;29.77;;;;;;;;;;5011993;28;20056;-61
2021/09/15 06:26:16;;;;;;;33.78;29.73;;;;;;;;;;5012047;28;20030;-61
2021/09/15 06:28:42;;;;;;;;;;;;;;;;;;5010970;28;20029;-61
2021/09/15 06:31:08;;;;;;;33.92;30.38;;;;;;;;;;4995779;28;20072;-58
2021/09/15 06:33:34;;;;;;;33.22;29.50;;;;;;;;;;5012016;28;20030;-60
2021/09/15 06:36:00;;;;;;;32.90;29.50;;;;;;;;;;4994232;28;20062;-60
2021/09/15 06:38:26;;;;;;;33.25;28.88;;;;;;;;;;5000138;28;20029;-62
2021/09/15 06:40:52;;;;;;;33.03;28.33;;;;;;;;;;5010843;28;20120;-62
2021/09/15 06:43:18;;;;;;;32.00;28.60;;;;;;;;;;5010889;28;20027;-60
2021/09/15 06:45:44;;;;;;;32.53;28.95;;;;;;;;;;5010635;28;20022;-62
2021/09/15 06:48:10;;;;;;;32.20;28.88;;;;;;;;;;5011366;28;20385;-62
2021/09/15 06:50:36;;;;;;;34.00;29.77;;;;;;;;;;5011753;28;20148;-62
2021/09/15 06:53:02;;;;;;;33.78;30.27;;;;;;;;;;5020631;28;20032;-61
2021/09/15 06:55:28;;;;;;;33.03;29.67;;;;;;;;;;5004780;28;20026;-61
2021/09/15 06:57:54;;;;;;;33.22;29.73;;;;;;;;;;4993825;28;20450;-62
2021/09/15 07:00:20;;;;;;;33.22;29.75;;;;;;;;;;5011327;28;20030;-61
2021/09/15 07:02:46;;;;;;;32.55;28.80;;;;;;;;;;5030805;28;20028;-60
2021/09/15 07:05:13;;;;;;;32.78;29.25;;;;;;;;;;5031283;28;20021;-62
2021/09/15 07:07:39;;;;;;;34.90;29.80;;;;;;;;;;5031620;28;20037;-62
2021/09/15 07:10:06;;;;;;;34.80;31.23;;;;;;;;;;5013424;28;20022;-61
2021/09/15 07:12:32;;;;;;;40.83;35.25;;;;;;;;;;5031061;28;20025;-62
2021/09/15 07:14:58;;;;;;;40.92;36.53;;;;;;;;;;5030992;28;20029;-60
2021/09/15 07:17:24;;;;;;;40.80;36.50;;;;;;;;;;5013436;28;20420;-62
2021/09/15 07:19:50;;;;;;;42.15;37.55;;;;;;;;;;5030849;28;20048;-61
2021/09/15 07:22:16;;;;;;;42.08;37.72;;;;;;;;;;5000517;28;20064;-61
2021/09/15 07:24:42;;;;;;;43.95;39.25;;;;;;;;;;5011361;28;20029;-60
2021/09/15 07:27:08;;;;;;;41.45;36.20;;;;;;;;;;5003489;28;20465;-59
2021/09/15 07:29:34;;;;;;;39.13;35.10;;;;;;;;;;5013261;28;20025;-61
2021/09/15 07:32:00;;;;;;;39.88;35.83;;;;;;;;;;5031072;28;20026;-62
2021/09/15 07:34:26;;;;;;;38.45;34.22;;;;;;;;;;5030829;28;20029;-62
2021/09/15 07:36:53;;;;;;;38.17;34.22;;;;;;;;;;5030978;28;20057;-62
2021/09/15 07:39:19;;;;;;;40.03;34.92;;;;;;;;;;5030713;28;20025;-62
2021/09/15 07:41:45;;;;;;;39.53;35.40;;;;;;;;;;5012857;28;20033;-62
2021/09/15 07:44:11;;;;;;;39.63;35.42;;;;;;;;;;5030402;28;20025;-61
2021/09/15 07:46:37;;;;;;;39.40;34.45;;;;;;;;;;5013053;28;20552;-67
2021/09/15 07:49:03;;;;;;;38.78;34.83;;;;;;;;;;5030888;28;20033;-67
2021/09/15 07:51:29;;;;;;;37.08;33.38;;;;;;;;;;5013013;28;20037;-67
2021/09/15 07:53:55;;;;;;;37.58;33.78;;;;;;;;;;4995231;28;20034;-67
2021/09/15 07:56:22;;;;;;;39.28;34.67;;;;;;;;;;5011175;28;20021;-67
2021/09/15 07:58:47;;;;;;;38.33;34.35;;;;;;;;;;5010758;28;20075;-67
2021/09/15 08:01:13;;;;;;;37.53;33.38;;;;;;;;;;5009881;28;20128;-67
2021/09/15 08:03:39;;;;;;;49.05;41.60;;;;;;;;;;5011151;28;20026;-65
2021/09/15 08:06:06;;;;;;;57.55;51.30;;;;;;;;;;5011010;28;20030;-67
2021/09/15 08:08:32;;;;;;;56.05;50.25;;;;;;;;;;5009674;28;20068;-67
2021/09/15 08:10:58;;;;;;;63.28;54.58;;;;;;;;;;5011291;28;20473;-67
2021/09/15 08:13:25;;;;;;;67.00;53.95;;;;;;;;;;5010906;28;20034;-67
2021/09/15 08:15:54;;;;;;;62.33;52.83;;;;;;;;;;5015889;28;20393;-66
2021/09/15 08:18:20;;;;;;;56.55;49.75;;;;;;;;;;5015446;28;20030;-66
2021/09/15 08:20:46;;;;;;;89.43;61.05;;;;;;;;;;5007099;28;20041;-66
2021/09/15 08:23:13;;;;;;;82.43;59.80;;;;;;;;;;5015249;28;20034;-66
2021/09/15 08:25:39;;;;;;;80.03;55.55;;;;;;;;;;5015532;28;20026;-66
2021/09/15 08:28:05;;;;;;;66.55;53.28;;;;;;;;;;5015522;28;20072;-64
2021/09/15 08:30:32;;;;;;;85.53;58.67;;;;;;;;;;5015629;28;20540;-67
2021/09/15 08:32:58;;;;;;;82.38;61.08;;;;;;;;;;4997746;28;20026;-66
2021/09/15 08:35:24;;;;;;;75.50;57.35;;;;;;;;;;4997958;28;20057;-67
2021/09/15 08:37:50;;;;;;;124.72;71.15;;;;;;;;;;5015339;28;20101;-67
2021/09/15 08:40:16;;;;;;;97.90;65.72;;;;;;;;;;4666092;28;9999680;-68
2021/09/15 08:42:42;;;;;;;101.05;68.00;;;;;;;;;;5012240;28;20056;-65
2021/09/15 08:45:11;;;;;;;69.68;56.60;;;;;;;;;;5012272;28;20433;-67
2021/09/15 08:47:37;;;;;;;83.68;57.38;;;;;;;;;;4994801;28;20041;-67
2021/09/15 08:50:05;;;;;;;58.95;51.33;;;;;;;;;;4994403;28;20103;-67
2021/09/15 08:52:31;;;;;;;83.90;57.80;;;;;;;;;;4995125;28;20394;-67
2021/09/15 08:54:57;;;;;;;63.00;52.72;;;;;;;;;;5012335;28;20226;-68
2021/09/15 08:57:23;;;;;;;79.55;56.92;;;;;;;;;;5012264;28;20036;-64
2021/09/15 08:59:49;;;;;;;55.40;44.90;;;;;;;;;;5011778;28;20648;-67
2021/09/15 09:02:15;;;;;;;52.17;42.80;;;;;;;;;;4994545;28;20052;-67
2021/09/15 09:04:54;;;;;;;52.95;45.58;;;;;;;;;;5012022;28;20180;-65
2021/09/15 09:07:20;;;;;;;54.45;45.45;;;;;;;;;;5012172;28;20033;-67
2021/09/15 09:09:48;;;;;;;59.33;48.03;;;;;;;;;;4994090;28;20397;-63
2021/09/15 09:12:14;;;;;;;58.95;49.72;;;;;;;;;;4994128;28;20045;-63
2021/09/15 09:14:40;;;;;;;62.13;51.35;;;;;;;;;;5001537;28;20025;-63
2021/09/15 09:17:06;;;;;;;55.53;49.17;;;;;;;;;;5010618;28;20029;-63
2021/09/15 09:19:32;;;;;;;56.50;50.42;;;;;;;;;;5012132;28;20434;-63
2021/09/15 09:22:00;;;;;;;59.33;52.90;;;;;;;;;;5011124;28;20038;-64
2021/09/15 09:24:27;;;;;;;53.33;47.50;;;;;;;;;;5007999;28;20033;-63
2021/09/15 09:26:57;;;;;;;62.33;52.63;;;;;;;;;;5009745;28;20533;-63
2021/09/15 09:29:28;;;;;;;68.35;54.80;;;;;;;;;;5001132;28;20034;-63
2021/09/15 09:31:54;;;;;;;70.35;56.42;;;;;;;;;;4998758;28;20022;-63
2021/09/15 09:34:20;;;;;;;62.70;53.75;;;;;;;;;;5011659;28;20044;-63
2021/09/15 09:37:02;;;;;;;60.08;52.70;;;;;;;;;;4994032;28;20115;-63
2021/09/15 09:39:41;;;;;;;64.18;54.60;;;;;;;;;;4993600;28;20084;-63
2021/09/15 09:42:23;;;;;;;55.83;50.22;;;;;;;;;;5011754;28;20022;-63
2021/09/15 09:45:08;;;;;;;62.75;53.08;;;;;;;;;;5021505;28;20037;-63
2021/09/15 09:47:35;;;;;;;57.83;51.85;;;;;;;;;;5031009;28;20021;-63
2021/09/15 09:50:04;;;;;;;55.92;50.05;;;;;;;;;;5013061;28;20112;-64
2021/09/15 09:52:30;;;;;;;65.38;55.40;;;;;;;;;;5030917;28;20060;-63
2021/09/15 09:54:59;;;;;;;75.80;57.90;;;;;;;;;;5031086;28;20033;-63
2021/09/15 09:57:27;;;;;;;64.97;55.92;;;;;;;;;;5013022;28;20034;-63
2021/09/15 09:59:54;;;;;;;59.08;53.05;;;;;;;;;;5030679;28;20171;-63
2021/09/15 10:02:20;;;;;;;65.22;58.53;;;;;;;;;;5012934;28;20465;-63
2021/09/15 10:04:47;;;;;;;77.50;67.15;;;;;;;;;;5033061;28;20064;-63
2021/09/15 10:07:13;;;;;;;78.70;63.22;;;;;;;;;;5033059;28;20428;-63
2021/09/15 10:09:40;;;;;;;64.93;58.20;;;;;;;;;;5032870;28;20025;-63
2021/09/15 10:12:07;;;;;;;63.92;55.53;;;;;;;;;;5032749;28;20029;-63
2021/09/15 10:14:33;;;;;;;63.95;57.08;;;;;;;;;;5032827;28;20036;-62
2021/09/15 10:17:02;;;;;;;62.22;55.65;;;;;;;;;;5031074;28;20430;-63
2021/09/15 10:19:34;;;;;;;77.32;61.88;;;;;;;;;;5031954;28;20176;-62
2021/09/15 10:22:04;;;;;;;82.78;64.22;;;;;;;;;;5027663;28;20040;-63
2021/09/15 10:24:48;;;;;;;71.82;61.80;;;;;;;;;;5012930;28;20036;-63
2021/09/15 10:27:14;;;;;;;67.00;59.55;;;;;;;;;;5013064;28;20482;-63
2021/09/15 10:29:41;;;;;;;57.47;51.88;;;;;;;;;;4995261;28;20120;-63
2021/09/15 10:32:09;;;;;;;55.35;50.13;;;;;;;;;;5014371;28;20392;-62
2021/09/15 10:34:41;;;;;;;60.63;54.83;;;;;;;;;;5012925;28;20057;-63
2021/09/15 10:37:09;;;;;;;54.90;49.67;;;;;;;;;;5012861;28;20449;-63
2021/09/15 10:39:52;;;;;;;61.45;55.42;;;;;;;;;;5012773;28;20049;-65
2021/09/15 10:42:46;;;;;;;61.05;55.28;;;;;;;;;;4995180;28;20044;-65
2021/09/15 10:45:15;;;;;;;57.78;52.15;;;;;;;;;;4995496;28;20026;-65
2021/09/15 10:47:52;;;;;;;63.65;57.50;;;;;;;;;;5012843;28;20511;-65
2021/09/15 10:50:31;;;;;;;66.85;59.83;;;;;;;;;;5013539;28;20018;-66
2021/09/15 10:53:12;;;;;;;66.95;60.08;;;;;;;;;;5010898;28;20450;-66
2021/09/15 10:55:39;;;;;;;62.83;56.63;;;;;;;;;;5011176;28;20133;-66
2021/09/15 10:58:16;;;;;;;63.97;56.47;;;;;;;;;;5012683;28;20030;-65
2021/09/15 11:00:49;;;;;;;59.97;53.92;;;;;;;;;;5012437;28;20029;-66
2021/09/15 11:03:41;;;;;;;59.22;53.45;;;;;;;;;;5012217;28;20168;-66
2021/09/15 11:06:07;;;;;;;56.65;51.35;;;;;;;;;;5014167;28;20037;-66
2021/09/15 11:08:35;;;;;;;65.03;58.33;;;;;;;;;;5031752;28;20021;-65
2021/09/15 11:11:05;;;;;;;65.82;59.13;;;;;;;;;;5014318;28;20025;-65
2021/09/15 11:13:34;;;;;;;60.42;54.83;;;;;;;;;;5032405;28;20068;-66
2021/09/15 11:16:20;;;;;;;59.15;53.45;;;;;;;;;;5031846;28;20408;-65
2021/09/15 11:18:53;;;;;;;55.45;50.30;;;;;;;;;;5031319;28;20029;-66
2021/09/15 11:21:19;;;;;;;55.28;50.03;;;;;;;;;;5031233;28;20041;-65
2021/09/15 11:23:46;;;;;;;56.88;51.70;;;;;;;;;;5045944;22;20092;-61
2021/09/15 11:26:12;;;;;;;59.28;53.60;;;;;;;;;;4994396;28;20392;-61
2021/09/15 11:28:38;;;;;;;58.22;52.83;;;;;;;;;;5011766;28;20026;-59
2021/09/15 11:31:04;;;;;;;56.28;51.03;;;;;;;;;;5012225;28;20028;-63
2021/09/15 11:33:39;;;;;;;57.03;51.58;;;;;;;;;;4994226;28;20021;-62
2021/09/15 11:36:05;;;;;;;55.97;50.78;;;;;;;;;;5012845;28;20460;-62
2021/09/15 11:38:33;;;;;;;59.30;53.60;;;;;;;;;;5012009;28;20034;-60
2021/09/15 11:41:06;;;;;;;56.22;50.97;;;;;;;;;;5029900;28;20033;-63
2021/09/15 11:43:32;;;;;;;52.75;47.95;;;;;;;;;;5013573;28;20033;-61
2021/09/15 11:45:58;;;;;;;52.75;48.22;;;;;;;;;;5031837;28;20459;-61
2021/09/15 11:48:28;;;;;;;49.22;45.08;;;;;;;;;;5030365;28;20560;-60
2021/09/15 11:50:54;;;;;;;48.78;44.47;;;;;;;;;;5013846;28;20089;-61
2021/09/15 11:53:21;;;;;;;47.63;43.83;;;;;;;;;;5031714;28;20059;-61
2021/09/15 11:55:59;;;;;;;44.45;40.95;;;;;;;;;;5029500;28;20029;-59
2021/09/15 11:58:25;;;;;;;44.13;40.53;;;;;;;;;;5013705;28;20048;-60
2021/09/15 12:00:51;;;;;;;42.42;38.92;;;;;;;;;;5014213;28;20397;-60
2021/09/15 12:03:21;;;;;;;42.72;39.03;;;;;;;;;;5031764;28;20033;-61
2021/09/15 12:05:47;;;;;;;44.95;41.25;;;;;;;;;;5031445;28;20022;-61
2021/09/15 12:08:13;;;;;;;42.92;39.53;;;;;;;;;;5031289;28;20026;-61
2021/09/15 12:10:39;;;;;;;41.97;38.67;;;;;;;;;;5014011;28;20060;-61
2021/09/15 12:13:05;;;;;;;41.40;38.03;;;;;;;;;;5029620;28;20017;-61
2021/09/15 12:15:50;;;;;;;41.67;38.38;;;;;;;;;;5031688;28;20029;-61
2021/09/15 12:18:17;;;;;;;40.30;37.10;;;;;;;;;;5031198;28;20029;-61
2021/09/15 12:20:47;;;;;;;40.42;37.13;;;;;;;;;;5031739;28;20029;-60
2021/09/15 12:23:14;;;;;;;41.03;37.72;;;;;;;;;;4998529;28;20412;-63
2021/09/15 12:25:50;;;;;;;40.55;37.40;;;;;;;;;;4994659;28;20504;-62
2021/09/15 12:28:24;;;;;;;39.67;36.58;;;;;;;;;;5012221;28;20084;-60
2021/09/15 12:30:50;;;;;;;40.50;37.28;;;;;;;;;;4995058;28;20037;-59
2021/09/15 12:33:23;;;;;;;39.53;36.40;;;;;;;;;;4994023;28;20129;-61
2021/09/15 12:36:07;;;;;;;40.72;37.38;;;;;;;;;;5011894;28;20034;-66
2021/09/15 12:38:44;;;;;;;41.10;37.72;;;;;;;;;;4993863;28;20437;-60
2021/09/15 12:41:10;;;;;;;40.90;37.80;;;;;;;;;;4993916;28;20478;-60
2021/09/15 12:43:36;;;;;;;40.42;37.22;;;;;;;;;;5011724;28;20037;-62
2021/09/15 12:46:02;;;;;;;40.42;37.22;;;;;;;;;;5011318;28;20520;-61
2021/09/15 12:48:28;;;;;;;39.90;36.88;;;;;;;;;;5027794;28;20116;-62
2021/09/15 12:50:54;;;;;;;40.67;37.58;;;;;;;;;;5030607;28;20064;-62
2021/09/15 12:53:20;;;;;;;41.03;37.78;;;;;;;;;;5030740;28;20024;-61
2021/09/15 12:55:51;;;;;;;41.47;38.28;;;;;;;;;;5030984;28;20013;-62
2021/09/15 12:58:25;;;;;;;36.90;33.88;;;;;;;;;;5012811;28;20183;-62
2021/09/15 13:00:51;;;;;;;39.10;35.85;;;;;;;;;;5016271;28;20540;-62
2021/09/15 13:03:18;;;;;;;38.55;35.35;;;;;;;;;;5032727;28;20033;-65
2021/09/15 13:05:45;;;;;;;40.85;37.45;;;;;;;;;;5016892;28;20393;-63
2021/09/15 13:08:18;;;;;;;39.97;36.58;;;;;;;;;;4997225;28;20116;-62
2021/09/15 13:10:48;;;;;;;38.00;34.80;;;;;;;;;;4997517;28;20022;-64
2021/09/15 13:13:25;;;;;;;37.03;33.83;;;;;;;;;;4997212;28;20079;-67
2021/09/15 13:15:52;;;;;;;37.47;34.38;;;;;;;;;;5013016;28;20025;-62
2021/09/15 13:18:19;;;;;;;35.85;32.85;;;;;;;;;;4996800;28;20026;-65
2021/09/15 13:20:45;;;;;;;37.25;34.15;;;;;;;;;;5016033;28;20057;-63
2021/09/15 13:23:11;;;;;;;37.42;34.05;;;;;;;;;;5012656;28;20036;-62
2021/09/15 13:25:38;;;;;;;33.45;30.52;;;;;;;;;;4996827;28;20026;-62
2021/09/15 13:28:04;;;;;;;30.17;27.20;;;;;;;;;;4996936;28;20042;-63
2021/09/15 13:30:30;;;;;;;32.55;29.65;;;;;;;;;;4996982;28;20092;-63
2021/09/15 13:32:56;;;;;;;30.73;28.02;;;;;;;;;;5014825;28;20026;-62
2021/09/15 13:35:22;;;;;;;29.50;26.85;;;;;;;;;;5014621;28;20029;-62
2021/09/15 13:37:49;;;;;;;29.00;26.40;;;;;;;;;;5004181;28;20469;-65
2021/09/15 13:40:15;;;;;;;28.88;26.15;;;;;;;;;;5033694;28;20033;-63
2021/09/15 13:42:41;;;;;;;27.75;25.15;;;;;;;;;;5034185;28;20228;-63
2021/09/15 13:45:10;;;;;;;29.13;26.25;;;;;;;;;;5034216;28;20461;-62
2021/09/15 13:47:36;;;;;;;27.70;25.08;;;;;;;;;;5033830;28;20508;-63
2021/09/15 13:50:02;;;;;;;27.50;24.90;;;;;;;;;;5016198;28;20049;-64
2021/09/15 13:52:28;;;;;;;28.27;25.63;;;;;;;;;;5034142;28;20101;-64
2021/09/15 13:54:54;;;;;;;27.17;24.67;;;;;;;;;;5014284;28;20128;-63
2021/09/15 13:57:20;;;;;;;24.30;21.95;;;;;;;;;;5033924;28;20038;-62
2021/09/15 13:59:46;;;;;;;26.40;23.70;;;;;;;;;;5033209;28;20025;-63
2021/09/15 14:02:12;;;;;;;24.98;22.45;;;;;;;;;;5033878;28;20029;-64
2021/09/15 14:04:38;;;;;;;20.67;18.45;;;;;;;;;;5033821;28;20037;-64
2021/09/15 14:07:05;;;;;;;21.77;19.38;;;;;;;;;;5033273;28;20049;-63
2021/09/15 14:09:31;;;;;;;20.92;18.35;;;;;;;;;;5015302;28;20481;-64
2021/09/15 14:11:57;;;;;;;21.27;17.95;;;;;;;;;;4655372;28;10000219;-64
2021/09/15 14:14:23;;;;;;;21.00;18.67;;;;;;;;;;5014603;28;20022;-63
2021/09/15 14:16:49;;;;;;;21.25;18.38;;;;;;;;;;4993469;28;20033;-63
2021/09/15 14:19:15;;;;;;;20.88;16.95;;;;;;;;;;5010778;28;20491;-63
2021/09/15 14:21:42;;;;;;;20.17;16.08;;;;;;;;;;4992921;28;20033;-62